Time;durP1;ratioP1;P1;durP2;ratioP2;P2;SDS_P1;SDS_P2;PMS_P1;PMS_P2;Temp;Humidity;BMP_temperature;BMP_pressure;BME280_temperature;BME280_humidity;BME280_pressure;Samples;Min_cycle;Max_cycle;Signal;HPM_P1;HPM_P2
2023/08/12 00:02:03;;;;;;;;;;;;;;;16.22;68.46;100566.09;5119133;27;5448;-78
2023/08/12 00:04:55;;;;;;;;;;;;;;;16.23;68.47;100561.47;5118146;27;5457;-79
2023/08/12 00:07:47;;;;;;;;;;;;;;;16.22;68.33;100562.56;5125270;27;5460;-77
2023/08/12 00:10:39;;;;;;;;;;;;;;;16.21;68.41;100559.03;5124962;27;5559;-76
2023/08/12 00:13:31;;;;;;;;;;;;;;;16.20;68.30;100560.09;5116404;27;5318;-79
2023/08/12 00:16:23;;;;;;;;;;;;;;;16.20;68.35;100554.66;5120653;27;5064;-78
2023/08/12 00:19:14;;;;;;;;;;;;;;;16.20;68.25;100554.66;5117171;27;5366;-77
2023/08/12 00:22:07;;;;;;;;;;;;;;;16.19;68.38;100552.19;5114168;27;5296;-77
2023/08/12 00:24:59;;;;;;;;;;;;;;;16.19;68.28;100547.59;5114368;27;5305;-76
2023/08/12 00:27:51;;;;;;;;;;;;;;;16.20;68.22;100556.56;5114185;27;5480;-79
2023/08/12 00:30:43;;;;;;;;;;;;;;;16.19;68.16;100546.78;5113550;27;5478;-77
2023/08/12 00:33:35;;;;;;;;;;;;;;;16.19;68.16;100552.19;5114928;27;5439;-76
2023/08/12 00:36:27;;;;;;;;;;;;;;;16.18;68.19;100553.25;5110974;27;5343;-76
2023/08/12 00:39:18;;;;;;;;;;;;;;;16.17;68.23;100551.63;5110411;27;5318;-77
2023/08/12 00:42:10;;;;;;;;;;;;;;;16.16;68.18;100548.09;5119012;27;5357;-76
2023/08/12 00:45:02;;;;;;;;;;;;;;;16.15;68.20;100541.03;5122460;27;5549;-78
2023/08/12 00:47:53;;;;;;;;;;;;;;;16.15;68.13;100541.03;5122586;27;5674;-77
2023/08/12 00:50:45;;;;;;;;;;;;;;;16.16;68.08;100533.69;5120126;27;5409;-77
2023/08/12 00:53:37;;;;;;;;;;;;;;;16.15;68.18;100537.47;5121833;27;5415;-78
2023/08/12 00:56:29;;;;;;;;;;;;;;;16.15;68.09;100538.31;5122753;27;5532;-78
2023/08/12 00:59:21;;;;;;;;;;;;;;;16.14;68.06;100528.50;5121931;27;5641;-77
2023/08/12 01:02:13;;;;;;;;;;;;;;;16.12;68.09;100515.19;5122529;27;5409;-78
2023/08/12 01:05:05;;;;;;;;;;;;;;;16.13;68.07;100503.25;5123983;27;5614;-77
2023/08/12 01:07:57;;;;;;;;;;;;;;;16.14;68.03;100504.06;5119968;27;5441;-78
2023/08/12 01:10:49;;;;;;;;;;;;;;;16.12;68.22;100496.19;5124133;27;5495;-76
2023/08/12 01:13:41;;;;;;;;;;;;;;;16.12;68.04;100496.19;5121230;27;5389;-79
2023/08/12 01:16:33;;;;;;;;;;;;;;;16.12;67.99;100495.38;5117817;27;5624;-76
2023/08/12 01:19:25;;;;;;;;;;;;;;;16.11;68.00;100480.94;5129005;27;5591;-77
2023/08/12 01:22:16;;;;;;;;;;;;;;;16.10;68.11;100484.75;5121596;27;5563;-76
2023/08/12 01:25:08;;;;;;;;;;;;;;;16.10;68.11;100500.22;5115957;27;5640;-78
2023/08/12 01:28:00;;;;;;;;;;;;;;;16.10;68.11;100489.34;5116335;27;5462;-75
2023/08/12 01:30:52;;;;;;;;;;;;;;;16.11;67.98;100477.41;5113866;27;5432;-79
2023/08/12 01:33:44;;;;;;;;;;;;;;;16.08;68.04;100476.03;5116691;27;5398;-75
2023/08/12 01:36:36;;;;;;;;;;;;;;;16.08;67.96;100469.78;5108808;27;5302;-77
2023/08/12 01:39:28;;;;;;;;;;;;;;;16.08;67.97;100469.78;5108733;27;5500;-78
2023/08/12 01:42:20;;;;;;;;;;;;;;;16.08;67.94;100464.34;5114528;27;5372;-77
2023/08/12 01:45:12;;;;;;;;;;;;;;;16.06;68.02;100464.63;5107735;27;5445;-80
2023/08/12 01:48:04;;;;;;;;;;;;;;;16.04;68.03;100466.75;5111664;27;5489;-77
2023/08/12 01:50:56;;;;;;;;;;;;;;;16.05;68.07;100473.00;5112051;27;5480;-77
2023/08/12 01:53:48;;;;;;;;;;;;;;;16.05;67.96;100464.84;5107685;27;5482;-76
2023/08/12 01:56:40;;;;;;;;;;;;;;;16.06;67.96;100455.63;5110012;27;5352;-77
2023/08/12 01:59:32;;;;;;;;;;;;;;;16.03;68.06;100462.41;5109578;27;5369;-76
2023/08/12 02:02:24;;;;;;;;;;;;;;;16.03;67.92;100456.97;5107068;27;5226;-79
2023/08/12 02:05:16;;;;;;;;;;;;;;;16.03;67.90;100459.69;5114192;27;5314;-79
2023/08/12 02:08:08;;;;;;;;;;;;;;;16.02;68.00;100457.22;5109261;27;5430;-77
2023/08/12 02:11:00;;;;;;;;;;;;;;;16.03;67.93;100448.00;5108364;27;5795;-75
2023/08/12 02:13:52;;;;;;;;;;;;;;;16.03;68.01;100439.84;5115370;27;5450;-78
2023/08/12 02:16:44;;;;;;;;;;;;;;;16.03;67.87;100437.97;5107612;27;5294;-77
2023/08/12 02:19:36;;;;;;;;;;;;;;;16.01;67.93;100440.13;5114317;27;5482;-77
2023/08/12 02:22:29;;;;;;;;;;;;;;;16.01;67.99;100442.00;5108720;27;5366;-76
2023/08/12 02:25:21;;;;;;;;;;;;;;;16.00;67.97;100432.22;5115176;27;5491;-79
2023/08/12 02:28:13;;;;;;;;;;;;;;;15.99;68.00;100434.13;5109928;27;5487;-78
2023/08/12 02:31:05;;;;;;;;;;;;;;;15.98;67.99;100428.94;5109561;27;5299;-77
2023/08/12 02:33:57;;;;;;;;;;;;;;;16.00;67.90;100424.91;5110373;27;5264;-78
2023/08/12 02:36:49;;;;;;;;;;;;;;;15.99;67.89;100430.59;5117268;27;5216;-75
2023/08/12 02:39:41;;;;;;;;;;;;;;;15.97;67.92;100419.16;5107866;27;5366;-77
2023/08/12 02:42:33;;;;;;;;;;;;;;;15.99;67.87;100417.00;5116566;27;5374;-77
2023/08/12 02:45:25;;;;;;;;;;;;;;;15.98;67.80;100424.34;5109615;27;5432;-77
2023/08/12 02:48:17;;;;;;;;;;;;;;;15.96;67.85;100409.38;5114539;27;5526;-79
2023/08/12 02:51:09;;;;;;;;;;;;;;;15.96;67.90;100409.38;5123209;27;5489;-79
2023/08/12 02:54:00;;;;;;;;;;;;;;;15.96;67.93;100409.38;5117623;27;5633;-77
2023/08/12 02:56:52;;;;;;;;;;;;;;;15.95;67.83;100405.84;5121554;27;5450;-80
2023/08/12 02:59:44;;;;;;;;;;;;;;;15.93;67.87;100407.16;5122058;27;5614;-79
2023/08/12 03:02:36;;;;;;;;;;;;;;;15.94;67.90;100400.66;5121717;27;5326;-77
2023/08/12 03:05:28;;;;;;;;;;;;;;;15.94;67.94;100403.38;5114372;27;5595;-77
2023/08/12 03:08:20;;;;;;;;;;;;;;;15.93;67.84;100396.31;5116939;27;5500;-79
2023/08/12 03:11:12;;;;;;;;;;;;;;;15.93;67.89;100391.69;5120106;27;5457;-78
2023/08/12 03:14:04;;;;;;;;;;;;;;;15.92;67.88;100395.50;5117323;27;5582;-76
2023/08/12 03:16:56;;;;;;;;;;;;;;;15.92;67.88;100395.50;5119477;27;5554;-76
2023/08/12 03:19:48;;;;;;;;;;;;;;;15.92;67.86;100398.22;5118244;27;5422;-77
2023/08/12 03:22:40;;;;;;;;;;;;;;;15.91;67.87;100393.84;5124577;27;6484;-77
2023/08/12 03:25:32;;;;;;;;;;;;;;;15.90;67.80;100387.59;5121672;27;5711;-75
2023/08/12 03:28:24;;;;;;;;;;;;;;;15.90;67.90;100384.88;5119798;27;5778;-77
2023/08/12 03:31:16;;;;;;;;;;;;;;;15.74;67.76;100366.03;5110748;27;6013;-76
2023/08/12 03:34:08;;;;;;;;;;;;;;;15.90;67.79;100392.22;5110365;28;5299;-78
2023/08/12 03:37:00;;;;;;;;;;;;;;;15.89;67.76;100387.88;5112725;28;5891;-77
2023/08/12 03:39:52;;;;;;;;;;;;;;;15.89;67.81;100396.81;5108054;28;5314;-76
2023/08/12 03:42:44;;;;;;;;;;;;;;;15.89;67.86;100387.88;5115120;27;5381;-80
2023/08/12 03:45:36;;;;;;;;;;;;;;;15.88;67.85;100384.34;5112286;28;5296;-78
2023/08/12 03:48:28;;;;;;;;;;;;;;;15.90;67.74;100389.50;5109400;28;5415;-78
2023/08/12 03:51:20;;;;;;;;;;;;;;;15.89;67.83;100383.25;5111519;28;5356;-78
2023/08/12 03:54:12;;;;;;;;;;;;;;;15.88;67.83;100388.94;5111414;28;5310;-77
2023/08/12 03:57:04;;;;;;;;;;;;;;;15.87;67.76;100393.53;5109259;28;5438;-78
2023/08/12 03:59:56;;;;;;;;;;;;;;;15.87;67.72;100379.97;5113367;27;5497;-79
2023/08/12 04:02:48;;;;;;;;;;;;;;;15.87;67.67;100382.69;5115565;27;5410;-78
2023/08/12 04:05:40;;;;;;;;;;;;;;;15.87;67.79;100384.59;5113456;27;5204;-78
2023/08/12 04:08:33;;;;;;;;;;;;;;;15.88;67.69;100378.06;5114990;27;5469;-78
2023/08/12 04:11:25;;;;;;;;;;;;;;;15.87;67.74;100379.16;5113922;27;5329;-79
2023/08/12 04:14:17;;;;;;;;;;;;;;;15.86;67.66;100383.78;5120593;27;5497;-78
2023/08/12 04:17:09;;;;;;;;;;;;;;;15.86;67.71;100374.81;5114033;27;5303;-79
2023/08/12 04:20:02;;;;;;;;;;;;;;;15.86;67.68;100382.97;5113707;27;5362;-77
2023/08/12 04:22:54;;;;;;;;;;;;;;;15.86;67.73;100380.25;5112819;27;5701;-79
2023/08/12 04:25:46;;;;;;;;;;;;;;;15.86;67.73;100372.09;5111724;27;5860;-77
2023/08/12 04:28:38;;;;;;;;;;;;;;;15.85;67.74;100371.28;5111946;27;5570;-77
2023/08/12 04:31:30;;;;;;;;;;;;;;;15.85;67.75;100375.88;5116493;27;5282;-77
2023/08/12 04:34:22;;;;;;;;;;;;;;;15.86;67.69;100380.25;5119255;27;5346;-78
2023/08/12 04:37:14;;;;;;;;;;;;;;;15.85;67.60;100374.00;5119250;27;5291;-78
2023/08/12 04:40:07;;;;;;;;;;;;;;;15.85;67.56;100371.28;5119375;27;5188;-78
2023/08/12 04:42:59;;;;;;;;;;;;;;;15.84;67.64;100374.25;5119022;27;5448;-79
2023/08/12 04:45:51;;;;;;;;;;;;;;;15.83;67.68;100378.84;5117410;27;5295;-78
2023/08/12 04:48:43;;;;;;;;;;;;;;;15.85;67.65;100378.59;5121883;27;5501;-78
2023/08/12 04:51:35;;;;;;;;;;;;;;;15.83;67.52;100373.44;5124163;27;5338;-77
2023/08/12 04:54:26;;;;;;;;;;;;;;;15.84;67.63;100363.38;5122032;27;5471;-78
2023/08/12 04:57:18;;;;;;;;;;;;;;;15.85;67.46;100367.72;5123177;27;5538;-77
2023/08/12 05:00:10;;;;;;;;;;;;;;;15.84;67.49;100369.63;5119806;27;5404;-77
2023/08/12 05:03:02;;;;;;;;;;;;;;;15.84;67.60;100371.53;5116184;27;5303;-76
2023/08/12 05:05:54;;;;;;;;;;;;;;;15.85;67.66;100367.72;5123281;27;5414;-78
2023/08/12 05:08:45;;;;;;;;;;;;;;;15.85;67.47;100365.00;5120622;27;5493;-79
2023/08/12 05:11:37;;;;;;;;;;;;;;;15.84;67.58;100361.47;5122838;27;5700;-77
2023/08/12 05:14:29;;;;;;;;;;;;;;;15.85;67.42;100354.16;5123592;27;5491;-77
2023/08/12 05:17:21;;;;;;;;;;;;;;;15.84;67.46;100363.38;5122550;27;5568;-77
2023/08/12 05:20:13;;;;;;;;;;;;;;;15.84;67.47;100349.81;5120865;27;5490;-76
2023/08/12 05:23:05;;;;;;;;;;;;;;;15.85;67.38;100346.00;5124029;27;5382;-78
2023/08/12 05:25:57;;;;;;;;;;;;;;;15.85;67.45;100344.13;5121484;27;5953;-77
2023/08/12 05:28:49;;;;;;;;;;;;;;;15.86;67.44;100350.38;5124031;27;5579;-78
2023/08/12 05:31:41;;;;;;;;;;;;;;;15.85;67.37;100349.56;5119658;27;5422;-77
2023/08/12 05:34:33;;;;;;;;;;;;;;;15.85;67.42;100346.84;5124998;27;5454;-79
2023/08/12 05:37:25;;;;;;;;;;;;;;;15.84;67.44;100350.63;5123721;27;5693;-76
2023/08/12 05:40:17;;;;;;;;;;;;;;;15.84;67.42;100350.63;5124210;27;5469;-77
2023/08/12 05:43:09;;;;;;;;;;;;;;;15.84;67.38;100356.03;5122901;27;5362;-76
2023/08/12 05:46:01;;;;;;;;;;;;;;;15.85;67.35;100357.69;5123634;27;5171;-79
2023/08/12 05:48:53;;;;;;;;;;;;;;;15.85;67.28;100363.13;5119348;27;5435;-77
2023/08/12 05:51:45;;;;;;;;;;;;;;;15.84;67.41;100364.19;5123853;27;5256;-78
2023/08/12 05:54:37;;;;;;;;;;;;;;;15.85;67.46;100365.84;5127340;27;2098;-80
2023/08/12 05:57:29;;;;;;;;;;;;;;;15.85;67.43;100362.28;5120461;27;2266;-76
2023/08/12 06:00:21;;;;;;;;;;;;;;;15.84;67.43;100352.50;5117104;27;2556;-78
2023/08/12 06:03:13;;;;;;;;;;;;;;;15.85;67.47;100356.84;5116731;27;2230;-78
2023/08/12 06:06:05;;;;;;;;;;;;;;;15.85;67.36;100351.44;5118514;27;2358;-77
2023/08/12 06:08:57;;;;;;;;;;;;;;;15.84;67.40;100360.66;5121688;27;2245;-79
2023/08/12 06:11:49;;;;;;;;;;;;;;;15.84;67.45;100358.75;5129690;27;1510;-76
2023/08/12 06:14:41;;;;;;;;;;;;;;;15.84;67.45;100353.31;5131209;27;1776;-77
2023/08/12 06:17:33;;;;;;;;;;;;;;;15.84;67.39;100358.75;5126465;27;1855;-77
2023/08/12 06:20:25;;;;;;;;;;;;;;;15.85;67.38;100356.84;5116772;27;2159;-76
2023/08/12 06:23:17;;;;;;;;;;;;;;;15.85;67.37;100362.28;5123214;27;2139;-77
2023/08/12 06:26:09;;;;;;;;;;;;;;;15.85;67.65;100360.41;5118090;27;2142;-79
2023/08/12 06:29:01;;;;;;;;;;;;;;;15.84;67.59;100364.19;5117051;27;2139;-79
2023/08/12 06:31:53;;;;;;;;;;;;;;;15.84;67.43;100364.19;5118333;27;2167;-77
2023/08/12 06:34:45;;;;;;;;;;;;;;;15.84;67.45;100353.31;5117704;27;2096;-79
2023/08/12 06:37:37;;;;;;;;;;;;;;;15.85;67.47;100359.56;5116492;27;2198;-79
2023/08/12 06:40:30;;;;;;;;;;;;;;;15.84;67.37;100363.38;5112588;27;3206;-79
2023/08/12 06:43:22;;;;;;;;;;;;;;;15.84;67.43;100366.09;5113856;27;3504;-79
2023/08/12 06:46:14;;;;;;;;;;;;;;;15.84;67.40;100364.19;5109573;27;3871;-78
2023/08/12 06:49:06;;;;;;;;;;;;;;;15.83;67.61;100362.56;5107786;27;2737;-78
2023/08/12 06:51:58;;;;;;;;;;;;;;;15.83;67.57;100357.13;5114090;27;3779;-78
2023/08/12 06:54:50;;;;;;;;;;;;;;;15.83;67.61;100351.69;5115713;27;2460;-78
2023/08/12 06:57:42;;;;;;;;;;;;;;;15.83;67.60;100359.03;5116207;27;2162;-79
2023/08/12 07:00:34;;;;;;;;;;;;;;;15.82;67.71;100352.75;5117726;27;2139;-76
2023/08/12 07:03:26;;;;;;;;;;;;;;;15.82;67.66;100347.31;5117745;27;2170;-77
2023/08/12 07:06:17;;;;;;;;;;;;;;;15.83;67.73;100350.88;5114552;27;2617;-77
2023/08/12 07:09:09;;;;;;;;;;;;;;;15.82;67.78;100360.91;5115516;27;2111;-76
2023/08/12 07:12:01;;;;;;;;;;;;;;;15.80;67.67;100354.94;5120679;28;2120;-78
2023/08/12 07:14:53;;;;;;;;;;;;;;;15.81;67.72;100362.00;5127384;27;1376;-78
2023/08/12 07:17:44;;;;;;;;;;;;;;;15.80;67.70;100363.09;5115894;27;2478;-79
2023/08/12 07:20:36;;;;;;;;;;;;;;;15.81;67.70;100355.75;5113942;27;2502;-77
2023/08/12 07:23:28;;;;;;;;;;;;;;;15.81;67.73;100364.72;5116129;27;2169;-77
2023/08/12 07:26:20;;;;;;;;;;;;;;;15.81;67.73;100363.91;5115124;27;2571;-79
2023/08/12 07:29:12;;;;;;;;;;;;;;;15.80;67.64;100368.50;5115048;27;2528;-79
2023/08/12 07:32:04;;;;;;;;;;;;;;;15.80;67.71;100373.13;5114232;27;2198;-77
2023/08/12 07:34:56;;;;;;;;;;;;;;;15.79;67.79;100369.56;5119874;27;2123;-78
2023/08/12 07:37:48;;;;;;;;;;;;;;;15.79;67.75;100361.41;5119787;27;2495;-77
2023/08/12 07:40:40;;;;;;;;;;;;;;;15.80;67.72;100365.78;5124392;27;2272;-78
2023/08/12 07:43:32;;;;;;;;;;;;;;;15.81;67.77;100367.44;5117382;27;2265;-78
2023/08/12 07:46:24;;;;;;;;;;;;;;;15.80;67.73;100370.41;5118625;27;2384;-77
2023/08/12 07:49:15;;;;;;;;;;;;;;;15.80;67.77;100384.81;5120524;27;2348;-77
2023/08/12 07:52:07;;;;;;;;;;;;;;;15.80;67.78;100373.94;5118636;27;2340;-78
2023/08/12 07:54:59;;;;;;;;;;;;;;;15.81;67.70;100375.56;5118209;27;2690;-78
2023/08/12 07:57:50;;;;;;;;;;;;;;;15.80;67.70;100379.38;5118575;27;2262;-79
2023/08/12 08:00:42;;;;;;;;;;;;;;;15.82;67.85;100384.53;5124886;27;2347;-78
2023/08/12 08:03:34;;;;;;;;;;;;;;;15.80;67.74;100379.38;5124199;27;2827;-78
2023/08/12 08:06:27;;;;;;;;;;;;;;;15.80;67.59;100382.09;5133907;27;1902;-77
2023/08/12 08:09:19;;;;;;;;;;;;;;;15.81;67.60;100382.91;5129438;27;1803;-76
2023/08/12 08:12:11;;;;;;;;;;;;;;;15.80;67.70;100382.09;5117509;27;2613;-79
2023/08/12 08:15:03;;;;;;;;;;;;;;;15.80;67.63;100382.09;5117643;27;2314;-78
2023/08/12 08:17:55;;;;;;;;;;;;;;;15.81;67.63;100381.00;5117484;27;2264;-78
2023/08/12 08:20:47;;;;;;;;;;;;;;;15.82;67.72;100381.81;5117645;27;2344;-77
2023/08/12 08:23:39;;;;;;;;;;;;;;;15.81;67.73;100378.28;5118973;27;2524;-77
2023/08/12 08:26:31;;;;;;;;;;;;;;;15.82;67.63;100388.06;5118182;27;2211;-76
2023/08/12 08:29:24;;;;;;;;;;;;;;;15.81;67.70;100388.34;5117723;27;2231;-79
2023/08/12 08:32:16;;;;;;;;;;;;;;;15.82;67.69;100390.78;5116381;27;2235;-79
2023/08/12 08:35:08;;;;;;;;;;;;;;;15.83;67.66;100387.00;5116068;27;2204;-79
2023/08/12 08:37:59;;;;;;;;;;;;;;;15.83;67.64;100392.44;5117152;27;2610;-79
2023/08/12 08:40:51;;;;;;;;;;;;;;;15.84;67.60;100398.69;5118059;27;2550;-79
2023/08/12 08:43:44;;;;;;;;;;;;;;;15.84;67.65;100394.06;5125781;27;2673;-78
2023/08/12 08:46:35;;;;;;;;;;;;;;;15.84;67.68;100396.78;5133010;27;1994;-77
2023/08/12 08:49:26;;;;;;;;;;;;;;;15.84;67.66;100394.06;5119136;27;2210;-79
2023/08/12 08:52:18;;;;;;;;;;;;;;;15.85;67.71;100398.44;5119996;27;2106;-78
2023/08/12 08:55:10;;;;;;;;;;;;;;;15.85;67.67;100386.72;5126915;27;2328;-77
2023/08/12 08:58:02;;;;;;;;;;;;;;;15.86;67.61;100385.66;5131628;27;2007;-79
2023/08/12 09:00:54;;;;;;;;;;;;;;;15.86;67.63;100389.19;5130240;27;1418;-78
2023/08/12 09:03:46;;;;;;;;;;;;;;;15.87;67.67;100390.00;5132380;27;1803;-79
2023/08/12 09:06:38;;;;;;;;;;;;;;;15.87;67.57;100385.41;5124543;27;2219;-77
2023/08/12 09:09:29;;;;;;;;;;;;;;;15.87;67.79;100382.69;5134099;27;1890;-77
2023/08/12 09:12:21;;;;;;;;;;;;;;;15.88;67.57;100387.06;5132443;27;1541;-77
2023/08/12 09:15:13;;;;;;;;;;;;;;;15.88;67.59;100375.34;5130099;27;1412;-79
2023/08/12 09:18:05;;;;;;;;;;;;;;;15.89;67.68;100388.69;5124395;27;2106;-78
2023/08/12 09:20:56;;;;;;;;;;;;;;;15.90;67.68;100378.63;5134162;27;1511;-77
2023/08/12 09:23:48;;;;;;;;;;;;;;;15.90;67.94;100393.03;5127674;27;1849;-77
2023/08/12 09:26:40;;;;;;;;;;;;;;;15.90;67.76;100384.88;5127233;27;2791;-79
2023/08/12 09:29:31;;;;;;;;;;;;;;;15.92;67.66;100390.06;5135095;27;1324;-78
2023/08/12 09:32:24;;;;;;;;;;;;;;;15.91;67.69;100380.25;5126080;27;1553;-79
2023/08/12 09:35:15;;;;;;;;;;;;;;;15.93;67.75;100388.16;5126662;27;1352;-77
2023/08/12 09:38:07;;;;;;;;;;;;;;;15.93;67.76;100390.88;5130308;27;1387;-79
2023/08/12 09:40:59;;;;;;;;;;;;;;;15.94;67.69;100397.94;5135038;27;1053;-78
2023/08/12 09:43:51;;;;;;;;;;;;;;;15.96;67.67;100398.50;5128744;27;1816;-77
2023/08/12 09:46:43;;;;;;;;;;;;;;;15.95;67.72;100396.88;5131122;27;1907;-78
2023/08/12 09:49:35;;;;;;;;;;;;;;;15.96;67.82;100403.94;5133165;27;1407;-77
2023/08/12 09:52:26;;;;;;;;;;;;;;;15.95;67.71;100394.97;5120303;27;1530;-78
2023/08/12 09:55:18;;;;;;;;;;;;;;;15.96;67.75;100393.06;5131661;27;1379;-78
2023/08/12 09:58:10;;;;;;;;;;;;;;;15.98;67.85;100402.59;5129412;27;1407;-79
2023/08/12 10:01:02;;;;;;;;;;;;;;;15.99;67.82;100401.50;5130339;27;1407;-78
2023/08/12 10:03:54;;;;;;;;;;;;;;;15.99;67.80;100409.66;5126307;27;1514;-78
2023/08/12 10:06:45;;;;;;;;;;;;;;;16.02;67.78;100411.03;5129122;27;1906;-79
2023/08/12 10:09:36;;;;;;;;;;;;;;;16.01;67.77;100410.22;5127437;27;2446;-78
2023/08/12 10:12:27;;;;;;;;;;;;;;;16.03;67.82;100407.25;5120586;27;2242;-79
2023/08/12 10:15:19;;;;;;;;;;;;;;;16.03;67.83;100402.66;5129353;27;1895;-79
2023/08/12 10:18:11;;;;;;;;;;;;;;;16.05;67.96;100405.09;5133368;27;2539;-77
2023/08/12 10:21:03;;;;;;;;;;;;;;;16.05;68.01;100408.63;5121603;27;1756;-78
2023/08/12 10:23:55;;;;;;;;;;;;;;;16.06;68.04;100413.00;5127896;27;2459;-78
2023/08/12 10:26:47;;;;;;;;;;;;;;;16.06;67.99;100418.44;5125941;27;2901;-77
2023/08/12 10:29:39;;;;;;;;;;;;;;;16.08;68.16;100418.16;5127768;27;1439;-79
2023/08/12 10:32:31;;;;;;;;;;;;;;;16.09;68.06;100414.38;5131246;27;1470;-77
2023/08/12 10:35:23;;;;;;;;;;;;;;;16.10;68.20;100418.72;5132231;27;1375;-78
2023/08/12 10:38:15;;;;;;;;;;;;;;;16.10;68.20;100419.53;5126488;27;2182;-78
2023/08/12 10:41:07;;;;;;;;;;;;;;;16.11;68.21;100414.91;5126442;27;1470;-76
2023/08/12 10:43:58;;;;;;;;;;;;;;;16.11;68.25;100415.75;5130572;27;1531;-78
2023/08/12 10:46:50;;;;;;;;;;;;;;;16.12;68.26;100414.69;5125876;27;1894;-78
2023/08/12 10:49:42;;;;;;;;;;;;;;;16.13;68.23;100415.50;5124772;27;1613;-78
2023/08/12 10:52:34;;;;;;;;;;;;;;;16.13;68.31;100423.63;5124260;27;1384;-77
2023/08/12 10:55:26;;;;;;;;;;;;;;;16.14;68.24;100419.84;5125198;27;2433;-77
2023/08/12 10:58:17;;;;;;;;;;;;;;;16.16;68.25;100414.16;5116244;27;2418;-78
2023/08/12 11:01:09;;;;;;;;;;;;;;;16.16;68.33;100414.16;5115867;27;2399;-77
2023/08/12 11:04:01;;;;;;;;;;;;;;;16.16;68.30;100412.25;5115947;27;2648;-77
2023/08/12 11:06:53;;;;;;;;;;;;;;;16.17;68.40;100411.16;5113372;27;2735;-78
2023/08/12 11:09:45;;;;;;;;;;;;;;;16.18;68.26;100415.53;5114701;27;2491;-78
2023/08/12 11:12:37;;;;;;;;;;;;;;;16.20;68.37;100428.84;5113557;27;2768;-77
2023/08/12 11:15:29;;;;;;;;;;;;;;;16.20;68.42;100426.13;5112446;27;2696;-78
2023/08/12 11:18:21;;;;;;;;;;;;;;;16.20;68.37;100432.38;5114552;27;2643;-78
2023/08/12 11:21:13;;;;;;;;;;;;;;;16.21;68.41;100423.16;5112498;27;2513;-76
2023/08/12 11:24:05;;;;;;;;;;;;;;;16.21;68.49;100419.63;5120716;27;2767;-77
2023/08/12 11:26:57;;;;;;;;;;;;;;;16.22;68.53;100434.84;5118616;27;2571;-76
2023/08/12 11:29:48;;;;;;;;;;;;;;;16.23;68.51;100422.88;5113369;27;2625;-77
2023/08/12 11:32:40;;;;;;;;;;;;;;;16.24;68.40;100428.09;5113499;28;2354;-78
2023/08/12 11:35:31;;;;;;;;;;;;;;;16.23;68.61;100431.84;5113778;27;2346;-79
2023/08/12 11:38:23;;;;;;;;;;;;;;;16.24;68.73;100436.22;5120857;27;2277;-78
2023/08/12 11:41:15;;;;;;;;;;;;;;;16.26;68.64;100439.50;5113539;27;2371;-79
2023/08/12 11:44:07;;;;;;;;;;;;;;;16.26;68.64;100438.69;5120848;27;2272;-78
2023/08/12 11:46:59;;;;;;;;;;;;;;;16.28;68.71;100441.97;5117992;27;2342;-77
2023/08/12 11:49:51;;;;;;;;;;;;;;;16.27;68.69;100441.16;5127955;27;1826;-77
2023/08/12 11:52:43;;;;;;;;;;;;;;;16.28;68.71;100436.53;5128562;27;1733;-77
2023/08/12 11:55:35;;;;;;;;;;;;;;;16.28;68.82;100445.50;5127340;27;1436;-78
2023/08/12 11:58:27;;;;;;;;;;;;;;;16.28;68.92;100442.78;5126527;27;2501;-78
2023/08/12 12:01:19;;;;;;;;;;;;;;;16.29;68.85;100458.00;5121566;27;2455;-76
2023/08/12 12:04:11;;;;;;;;;;;;;;;16.29;68.91;100440.88;5125728;27;1705;-78
2023/08/12 12:07:06;;;;;;;;;;;;;;;16.30;68.86;100442.53;5116481;27;2277;-76
2023/08/12 12:09:57;;;;;;;;;;;;;;;16.31;68.86;100444.97;5117430;28;2324;-77
2023/08/12 12:12:49;;;;;;;;;;;;;;;16.32;68.87;100443.06;5116101;27;2336;-77
2023/08/12 12:15:41;;;;;;;;;;;;;;;16.31;68.98;100444.97;5116916;27;2787;-80
2023/08/12 12:18:33;;;;;;;;;;;;;;;16.31;69.00;100431.38;5124841;27;2042;-79
2023/08/12 12:21:25;;;;;;;;;;;;;;;16.33;68.88;100434.66;5130652;27;1506;-77
2023/08/12 12:24:17;;;;;;;;;;;;;;;16.34;68.91;100435.47;5132374;27;1625;-78
2023/08/12 12:27:09;;;;;;;;;;;;;;;16.34;68.89;100433.56;5131442;27;1973;-78
2023/08/12 12:30:00;;;;;;;;;;;;;;;16.35;69.04;100427.09;5130483;27;2220;-78
2023/08/12 12:32:52;;;;;;;;;;;;;;;16.37;69.01;100434.16;5126598;27;1530;-78
2023/08/12 12:35:44;;;;;;;;;;;;;;;16.36;69.17;100427.91;5128464;27;1752;-76
2023/08/12 12:38:36;;;;;;;;;;;;;;;16.36;69.11;100419.75;5130258;27;1499;-77
2023/08/12 12:41:28;;;;;;;;;;;;;;;16.37;69.23;100418.66;5124424;27;2225;-79
2023/08/12 12:44:20;;;;;;;;;;;;;;;16.38;69.21;100417.56;5133209;27;1871;-78
2023/08/12 12:47:12;;;;;;;;;;;;;;;16.39;69.21;100413.78;5128362;27;1937;-80
2023/08/12 12:50:04;;;;;;;;;;;;;;;16.40;69.09;100409.16;5130675;27;1407;-78
2023/08/12 12:52:56;;;;;;;;;;;;;;;16.41;69.11;100419.75;5131624;27;1064;-78
2023/08/12 12:55:48;;;;;;;;;;;;;;;16.42;69.13;100415.97;5118170;27;2367;-78
2023/08/12 12:58:40;;;;;;;;;;;;;;;16.44;69.13;100418.41;5116501;27;2490;-77
2023/08/12 13:01:33;;;;;;;;;;;;;;;16.44;69.13;100415.69;5119969;27;2442;-78
2023/08/12 13:04:25;;;;;;;;;;;;;;;16.45;69.16;100417.34;5124833;27;2691;-78
2023/08/12 13:07:17;;;;;;;;;;;;;;;16.45;69.17;100414.63;5123196;27;2361;-79
2023/08/12 13:10:09;;;;;;;;;;;;;;;16.47;69.26;100412.44;5125840;27;2646;-78
2023/08/12 13:13:01;;;;;;;;;;;;;;;16.47;69.17;100418.72;5124516;27;2344;-77
2023/08/12 13:15:52;;;;;;;;;;;;;;;16.49;69.25;100423.91;5132500;27;2262;-77
2023/08/12 13:18:44;;;;;;;;;;;;;;;16.49;69.29;100413.84;5124087;27;2447;-79
2023/08/12 13:21:36;;;;;;;;;;;;;;;16.50;69.24;100414.66;5120512;27;2368;-78
2023/08/12 13:24:28;;;;;;;;;;;;;;;16.51;69.31;100408.16;5129504;27;2665;-79
2023/08/12 13:27:20;;;;;;;;;;;;;;;16.51;69.33;100411.69;5133516;27;1909;-78
2023/08/12 13:30:12;;;;;;;;;;;;;;;16.53;69.33;100412.25;5134685;27;1610;-77
2023/08/12 13:33:03;;;;;;;;;;;;;;;16.55;69.37;100412.78;5121408;27;2301;-78
2023/08/12 13:35:55;;;;;;;;;;;;;;;16.55;69.50;100407.34;5128638;27;1018;-77
2023/08/12 13:38:47;;;;;;;;;;;;;;;16.57;69.37;100412.53;5129900;27;1526;-76
2023/08/12 13:41:39;;;;;;;;;;;;;;;16.57;69.44;100402.47;5123603;27;2438;-76
2023/08/12 13:44:31;;;;;;;;;;;;;;;16.60;69.50;100398.41;5127942;27;2352;-78
2023/08/12 13:47:23;;;;;;;;;;;;;;;16.60;69.42;100412.00;5127178;27;2359;-77
2023/08/12 13:50:17;;;;;;;;;;;;;;;16.62;69.46;100404.41;5129698;27;2433;-79
2023/08/12 13:53:08;;;;;;;;;;;;;;;16.63;69.50;100405.22;5126576;27;1991;-78
2023/08/12 13:55:59;;;;;;;;;;;;;;;16.65;69.53;100405.75;5134284;27;875;-78
2023/08/12 13:58:51;;;;;;;;;;;;;;;16.65;69.47;100406.59;5126466;27;2264;-77
2023/08/12 14:01:43;;;;;;;;;;;;;;;16.66;69.65;100405.50;5128346;27;2378;-76
2023/08/12 14:04:35;;;;;;;;;;;;;;;16.66;69.59;100400.06;5126181;27;1327;-79
2023/08/12 14:07:27;;;;;;;;;;;;;;;16.67;69.55;100407.13;5122695;27;2409;-80
2023/08/12 14:10:18;;;;;;;;;;;;;;;16.70;69.65;100420.22;5127057;27;2832;-81
2023/08/12 14:13:10;;;;;;;;;;;;;;;16.70;69.64;100417.50;5120068;27;1921;-78
2023/08/12 14:16:02;;;;;;;;;;;;;;;16.71;69.60;100405.56;5132037;27;2040;-81
2023/08/12 14:18:54;;;;;;;;;;;;;;;16.73;69.61;100403.38;5133773;27;985;-80
2023/08/12 14:21:46;;;;;;;;;;;;;;;16.73;69.56;100400.66;5126143;27;994;-81
2023/08/12 14:24:38;;;;;;;;;;;;;;;16.75;69.80;100403.13;5122250;27;1253;-83
2023/08/12 14:27:30;;;;;;;;;;;;;;;16.77;69.71;100407.25;5129235;27;1961;-80
2023/08/12 14:30:22;;;;;;;;;;;;;;;16.78;69.71;100398.00;5121790;27;1888;-79
2023/08/12 14:33:14;;;;;;;;;;;;;;;16.82;69.77;100402.91;5129369;27;1006;-80
2023/08/12 14:36:06;;;;;;;;;;;;;;;16.80;69.85;100401.28;5120109;27;994;-79
2023/08/12 14:38:58;;;;;;;;;;;;;;;16.82;69.65;100395.56;5138051;27;2826;-79
2023/08/12 14:41:50;;;;;;;;;;;;;;;16.84;69.77;100396.13;5132674;27;1447;-79
2023/08/12 14:44:41;;;;;;;;;;;;;;;16.85;69.92;100397.75;5131451;27;1017;-79
2023/08/12 14:47:33;;;;;;;;;;;;;;;16.86;70.06;100387.72;5132548;27;1973;-79
2023/08/12 14:50:25;;;;;;;;;;;;;;;16.86;69.93;100393.97;5131477;27;1175;-80
2023/08/12 14:53:17;;;;;;;;;;;;;;;16.87;69.84;100387.44;5132910;27;1361;-79
2023/08/12 14:56:09;;;;;;;;;;;;;;;16.88;69.95;100389.06;5129652;27;1414;-80